Time;durP1;ratioP1;P1;durP2;ratioP2;P2;SDS_P1;SDS_P2;PMS_P1;PMS_P2;Temp;Humidity;BMP_temperature;BMP_pressure;BME280_temperature;BME280_humidity;BME280_pressure;Samples;Min_cycle;Max_cycle;Signal;HPM_P1;HPM_P2
2023/02/18 00:02:06;;;;;;;5.95;3.00;;;9.60;99.90;;;;;;5051663;28;20029;-48
2023/02/18 00:04:53;;;;;;;11.10;3.10;;;9.60;99.90;;;;;;5051389;28;20043;-50
2023/02/18 00:07:40;;;;;;;8.18;2.92;;;9.70;99.90;;;;;;5051679;28;20032;-48
2023/02/18 00:10:26;;;;;;;7.10;3.17;;;9.70;99.90;;;;;;5051211;28;20028;-52
2023/02/18 00:13:12;;;;;;;7.40;2.50;;;9.60;99.90;;;;;;5051294;28;20082;-53
2023/02/18 00:16:03;;;;;;;7.63;3.53;;;9.70;99.90;;;;;;5051222;28;20090;-48
2023/02/18 00:18:49;;;;;;;8.10;3.30;;;9.70;99.90;;;;;;5051770;28;20692;-48
2023/02/18 00:21:36;;;;;;;7.00;2.83;;;9.70;99.90;;;;;;5051118;28;20574;-51
2023/02/18 00:24:21;;;;;;;9.80;3.05;;;9.40;99.90;;;;;;5051558;28;20048;-50
2023/02/18 00:27:08;;;;;;;6.03;3.22;;;9.50;99.90;;;;;;5051444;28;20029;-48
2023/02/18 00:29:54;;;;;;;11.57;3.17;;;9.30;99.90;;;;;;5030931;28;20116;-50
2023/02/18 00:32:40;;;;;;;6.30;2.97;;;9.40;99.90;;;;;;5031877;28;20575;-50
2023/02/18 00:35:26;;;;;;;8.73;3.08;;;9.20;99.90;;;;;;5034182;28;20029;-47
2023/02/18 00:38:11;;;;;;;8.13;3.05;;;9.20;99.90;;;;;;5050650;28;20060;-49
2023/02/18 00:40:58;;;;;;;6.82;2.90;;;9.20;99.90;;;;;;5050606;28;20063;-53
2023/02/18 00:43:44;;;;;;;7.72;3.00;;;9.20;99.90;;;;;;5051233;28;20573;-54
2023/02/18 00:46:30;;;;;;;8.68;2.90;;;9.20;99.90;;;;;;5051560;28;20043;-49
2023/02/18 00:49:16;;;;;;;6.18;2.70;;;9.10;99.90;;;;;;5031794;28;20100;-51
2023/02/18 00:52:03;;;;;;;7.03;3.50;;;9.10;99.90;;;;;;5031283;28;20025;-49
2023/02/18 00:54:48;;;;;;;8.48;2.90;;;9.10;99.90;;;;;;5050678;28;20033;-47
2023/02/18 00:57:34;;;;;;;9.85;3.80;;;9.10;99.90;;;;;;5035545;28;20021;-48
2023/02/18 01:00:20;;;;;;;8.38;3.08;;;9.20;99.90;;;;;;5031570;28;20057;-49
2023/02/18 01:03:07;;;;;;;6.40;2.80;;;9.10;99.90;;;;;;5033426;28;20036;-49
2023/02/18 01:05:53;;;;;;;12.75;3.65;;;9.20;99.90;;;;;;5051913;28;20021;-52
2023/02/18 01:08:40;;;;;;;9.32;3.15;;;9.20;99.90;;;;;;5050263;28;20065;-50
2023/02/18 01:11:26;;;;;;;8.95;3.00;;;9.20;99.90;;;;;;5050430;28;20040;-48
2023/02/18 01:14:12;;;;;;;11.85;3.28;;;9.10;99.90;;;;;;5050788;28;20025;-47
2023/02/18 01:16:57;;;;;;;9.93;2.95;;;9.10;99.90;;;;;;5050261;28;20021;-48
2023/02/18 01:19:43;;;;;;;5.55;2.90;;;9.20;99.90;;;;;;5050366;28;20138;-51
2023/02/18 01:22:29;;;;;;;11.13;3.45;;;9.20;99.90;;;;;;5016970;28;20129;-50
2023/02/18 01:25:15;;;;;;;6.57;2.75;;;9.20;99.90;;;;;;5031659;28;20067;-49
2023/02/18 01:28:02;;;;;;;10.02;3.58;;;9.20;99.90;;;;;;5030984;28;20032;-49
2023/02/18 01:30:47;;;;;;;9.77;3.30;;;9.10;99.90;;;;;;5033616;28;20021;-49
2023/02/18 01:33:34;;;;;;;8.45;3.10;;;9.10;99.90;;;;;;5036464;28;20037;-52
2023/02/18 01:36:20;;;;;;;7.00;3.25;;;9.10;99.90;;;;;;5049896;28;20516;-48
2023/02/18 01:39:06;;;;;;;11.63;3.38;;;9.10;99.90;;;;;;5050837;28;20033;-49
2023/02/18 01:41:52;;;;;;;9.40;2.78;;;9.10;99.90;;;;;;5052869;28;20587;-51
2023/02/18 01:44:39;;;;;;;9.98;3.17;;;9.20;99.90;;;;;;5054241;28;20505;-51
2023/02/18 01:47:25;;;;;;;11.38;3.13;;;9.20;99.90;;;;;;5053487;28;20473;-47
2023/02/18 01:50:11;;;;;;;6.85;2.92;;;9.20;99.90;;;;;;5053994;28;20052;-47
2023/02/18 01:52:58;;;;;;;9.70;3.05;;;9.20;99.90;;;;;;5034708;28;20057;-50
2023/02/18 01:55:45;;;;;;;8.88;3.30;;;9.00;99.90;;;;;;5036236;28;20445;-51
2023/02/18 01:58:31;;;;;;;8.13;3.58;;;9.20;99.90;;;;;;5040036;28;20025;-52
2023/02/18 02:01:18;;;;;;;5.97;2.92;;;9.20;99.90;;;;;;5054689;28;20033;-48
2023/02/18 02:04:04;;;;;;;9.25;3.05;;;9.20;99.90;;;;;;5057225;28;20033;-50
2023/02/18 02:06:50;;;;;;;11.00;3.22;;;9.30;99.90;;;;;;5055318;28;20055;-49
2023/02/18 02:09:38;;;;;;;10.18;3.75;;;9.20;99.90;;;;;;5053793;28;20586;-48
2023/02/18 02:12:58;;;;;;;12.30;3.83;;;9.20;99.90;;;;;;5054096;28;20428;-46
2023/02/18 02:15:49;;;;;;;7.57;3.60;;;9.20;99.90;;;;;;5033952;28;20049;-49
2023/02/18 02:19:03;;;;;;;12.80;3.50;;;9.20;99.90;;;;;;5035821;28;20030;-50
2023/02/18 02:22:14;;;;;;;12.85;3.63;;;9.20;99.90;;;;;;5053351;28;20061;-50
2023/02/18 02:25:08;;;;;;;9.48;3.53;;;9.20;99.90;;;;;;5053102;28;20033;-44
2023/02/18 02:27:53;;;;;;;9.05;3.38;;;9.20;99.90;;;;;;5053800;28;20087;-47
2023/02/18 02:31:06;;;;;;;10.88;4.00;;;9.20;99.90;;;;;;5052881;28;20127;-50
2023/02/18 02:34:27;;;;;;;12.48;3.53;;;9.20;99.90;;;;;;5053134;28;20238;-45
2023/02/18 02:37:24;;;;;;;11.48;3.80;;;9.10;99.90;;;;;;5052620;28;20040;-45
2023/02/18 02:40:26;;;;;;;6.85;3.50;;;9.10;99.90;;;;;;5052596;28;20021;-48
2023/02/18 02:43:23;;;;;;;11.00;3.70;;;9.10;99.90;;;;;;5052585;28;20029;-48
2023/02/18 02:46:35;;;;;;;12.85;4.70;;;9.20;99.90;;;;;;5033032;28;20446;-48
2023/02/18 02:49:37;;;;;;;9.45;3.60;;;9.20;99.90;;;;;;5037480;28;20037;-47
2023/02/18 02:52:29;;;;;;;7.68;3.78;;;9.30;99.90;;;;;;5052337;28;20390;-48
2023/02/18 02:55:15;;;;;;;13.18;4.22;;;9.30;99.90;;;;;;5052293;28;20108;-47
2023/02/18 02:58:01;;;;;;;12.57;3.35;;;9.20;99.90;;;;;;5052256;28;20444;-46
2023/02/18 03:01:06;;;;;;;13.27;4.05;;;9.20;99.90;;;;;;5039910;28;20024;-47
2023/02/18 03:04:05;;;;;;;15.13;5.38;;;9.30;99.90;;;;;;5052813;28;20051;-49
2023/02/18 03:07:09;;;;;;;10.00;3.60;;;9.40;99.90;;;;;;5052200;28;20029;-48
2023/02/18 03:10:17;;;;;;;9.05;4.00;;;9.30;99.90;;;;;;5052206;28;20029;-48
2023/02/18 03:13:22;;;;;;;8.77;3.80;;;9.20;99.90;;;;;;5052796;28;20108;-49
2023/02/18 03:16:14;;;;;;;10.38;4.07;;;9.20;99.90;;;;;;5032065;28;20108;-48
2023/02/18 03:19:19;;;;;;;11.43;4.18;;;9.20;99.90;;;;;;5023392;28;20036;-47
2023/02/18 03:22:15;;;;;;;12.20;4.43;;;9.30;99.90;;;;;;5052796;28;20437;-49
2023/02/18 03:25:02;;;;;;;9.85;3.90;;;9.10;99.90;;;;;;5052252;28;20071;-46
2023/02/18 03:27:55;;;;;;;8.90;4.18;;;9.00;99.90;;;;;;5050447;28;20536;-48
2023/02/18 03:30:50;;;;;;;11.32;3.63;;;9.00;99.90;;;;;;5051726;28;20029;-47
2023/02/18 03:33:40;;;;;;;;;;;9.10;99.90;;;;;;5037958;28;20029;-47
2023/02/18 03:36:27;;;;;;;12.15;4.20;;;9.10;99.90;;;;;;5031073;28;19909;-48
2023/02/18 03:39:15;;;;;;;7.13;3.17;;;9.10;99.90;;;;;;5035100;28;20112;-47
2023/02/18 03:42:01;;;;;;;10.40;4.10;;;8.90;99.90;;;;;;5051581;28;20100;-48
2023/02/18 03:44:47;;;;;;;10.75;4.15;;;8.80;99.90;;;;;;5051365;28;20041;-47
2023/02/18 03:47:33;;;;;;;9.43;3.65;;;8.80;99.90;;;;;;5051324;28;20509;-47
2023/02/18 03:50:19;;;;;;;10.95;3.63;;;8.80;99.90;;;;;;5051302;28;20037;-48
2023/02/18 03:53:05;;;;;;;16.70;3.72;;;8.80;99.90;;;;;;5051600;28;20090;-46
2023/02/18 03:55:51;;;;;;;8.65;3.50;;;8.90;99.90;;;;;;5032493;28;20088;-47
2023/02/18 03:58:37;;;;;;;10.60;3.50;;;8.90;99.90;;;;;;5034737;28;20095;-47
2023/02/18 04:01:23;;;;;;;9.63;4.20;;;9.00;99.90;;;;;;5037760;28;20100;-48
2023/02/18 04:04:09;;;;;;;10.05;3.50;;;9.10;99.90;;;;;;5050686;28;20040;-47
2023/02/18 04:06:55;;;;;;;12.27;3.72;;;9.10;99.90;;;;;;5051318;28;20455;-48
2023/02/18 04:09:41;;;;;;;9.77;4.10;;;9.10;99.90;;;;;;5051806;28;20386;-47
2023/02/18 04:12:27;;;;;;;9.55;3.65;;;9.00;99.90;;;;;;5051235;28;20072;-47
2023/02/18 04:15:13;;;;;;;12.02;3.80;;;9.00;99.90;;;;;;5051185;28;20025;-49
2023/02/18 04:17:59;;;;;;;10.73;4.22;;;9.10;99.90;;;;;;5050478;28;20021;-48
2023/02/18 04:20:45;;;;;;;10.90;3.90;;;9.00;99.90;;;;;;5051036;28;20044;-47
2023/02/18 04:23:31;;;;;;;8.70;4.13;;;9.10;99.90;;;;;;5051327;28;20454;-53
2023/02/18 04:26:17;;;;;;;8.05;3.83;;;9.00;99.90;;;;;;5031713;28;20528;-50
2023/02/18 04:29:03;;;;;;;11.50;3.97;;;9.00;99.90;;;;;;5032375;28;20052;-46
2023/02/18 04:31:49;;;;;;;11.80;3.70;;;8.90;99.90;;;;;;5050974;28;20051;-49
2023/02/18 04:34:35;;;;;;;14.00;4.20;;;8.90;99.90;;;;;;5051498;28;20048;-50
2023/02/18 04:37:21;;;;;;;12.93;4.10;;;8.80;99.90;;;;;;5050871;28;20025;-47
2023/02/18 04:40:07;;;;;;;10.60;4.60;;;8.90;99.90;;;;;;5050855;28;20036;-49
2023/02/18 04:42:53;;;;;;;13.18;5.05;;;9.00;99.90;;;;;;5037109;28;20074;-50
2023/02/18 04:45:39;;;;;;;11.68;4.53;;;9.00;99.90;;;;;;5017984;28;20038;-49
2023/02/18 04:48:25;;;;;;;14.80;6.15;;;9.00;99.90;;;;;;5047365;28;20029;-47
2023/02/18 04:51:11;;;;;;;14.13;5.47;;;9.00;99.90;;;;;;5050902;28;20044;-47
2023/02/18 04:53:57;;;;;;;14.00;5.45;;;9.10;99.90;;;;;;5017930;28;20390;-47
2023/02/18 04:56:43;;;;;;;11.50;5.18;;;9.20;99.90;;;;;;5031531;28;20030;-48
2023/02/18 04:59:29;;;;;;;12.98;5.22;;;9.20;99.90;;;;;;5050724;28;20060;-48
2023/02/18 05:02:15;;;;;;;12.35;5.28;;;9.10;99.90;;;;;;5050489;28;20105;-47
2023/02/18 05:05:01;;;;;;;13.75;5.20;;;9.10;99.90;;;;;;5050674;28;20033;-47
2023/02/18 05:07:47;;;;;;;11.38;5.05;;;9.10;99.90;;;;;;5050744;28;20032;-49
2023/02/18 05:10:34;;;;;;;10.13;5.10;;;9.20;99.90;;;;;;5050626;28;20037;-47
2023/02/18 05:13:21;;;;;;;13.15;5.47;;;9.00;99.90;;;;;;5050518;28;20021;-47
2023/02/18 05:16:07;;;;;;;13.02;6.18;;;9.10;99.90;;;;;;5054751;28;20493;-46
2023/02/18 05:18:53;;;;;;;16.48;6.70;;;9.10;99.90;;;;;;5053888;28;20554;-48
2023/02/18 05:21:39;;;;;;;15.32;6.25;;;9.00;99.90;;;;;;5041303;28;20470;-47
2023/02/18 05:24:25;;;;;;;18.33;6.60;;;9.00;99.90;;;;;;5035545;28;20033;-47
2023/02/18 05:27:11;;;;;;;14.15;6.57;;;9.00;99.90;;;;;;5036100;28;20033;-50
2023/02/18 05:29:57;;;;;;;15.25;7.40;;;9.00;99.90;;;;;;5053864;28;20516;-48
2023/02/18 05:32:43;;;;;;;15.45;7.03;;;9.00;99.90;;;;;;5040462;28;20075;-48
2023/02/18 05:35:29;;;;;;;13.88;7.35;;;9.00;99.90;;;;;;5040500;28;20086;-48
2023/02/18 05:38:15;;;;;;;15.68;8.23;;;8.90;99.90;;;;;;5053750;28;20141;-49
2023/02/18 05:41:01;;;;;;;16.25;8.05;;;9.00;99.90;;;;;;5054061;28;20033;-47
2023/02/18 05:46:51;;;;;;;18.77;8.55;;;8.80;99.90;;;;;;5033809;28;20022;-48
2023/02/18 05:49:39;;;;;;;14.85;9.63;;;8.80;99.90;;;;;;5033929;28;20026;-47
2023/02/18 05:52:25;;;;;;;16.77;10.77;;;8.80;99.90;;;;;;5034212;28;20064;-48
2023/02/18 05:55:11;;;;;;;18.17;9.98;;;8.80;99.90;;;;;;5034308;28;20052;-47
2023/02/18 05:57:57;;;;;;;18.33;10.57;;;8.80;99.90;;;;;;5037757;28;20025;-50
2023/02/18 06:00:43;;;;;;;18.60;10.85;;;8.70;99.90;;;;;;5053166;28;20036;-48
2023/02/18 06:03:29;;;;;;;17.95;11.02;;;8.80;99.90;;;;;;5040489;28;20444;-49
2023/02/18 06:06:15;;;;;;;23.05;11.77;;;8.80;99.90;;;;;;5054408;28;20444;-50
2023/02/18 06:09:02;;;;;;;16.58;10.77;;;8.90;99.90;;;;;;5057239;28;20142;-51
2023/02/18 06:11:47;;;;;;;17.45;11.75;;;8.90;99.90;;;;;;5056699;28;20033;-53
2023/02/18 06:14:33;;;;;;;17.30;11.07;;;8.80;99.90;;;;;;5062397;28;20033;-50
2023/02/18 06:17:21;;;;;;;19.25;11.73;;;8.90;99.90;;;;;;5065312;28;20025;-49
2023/02/18 06:20:07;;;;;;;17.05;12.05;;;9.00;99.90;;;;;;5066495;28;20044;-51
2023/02/18 06:22:53;;;;;;;21.95;12.77;;;9.00;99.90;;;;;;5079935;22;20132;-51
2023/02/18 06:25:40;;;;;;;19.80;12.60;;;9.10;99.90;;;;;;5017857;28;20109;-52
2023/02/18 06:28:26;;;;;;;18.40;12.02;;;9.10;99.90;;;;;;5014153;28;20026;-50
2023/02/18 06:31:12;;;;;;;20.67;13.55;;;9.20;99.90;;;;;;5030548;28;20026;-53
2023/02/18 06:33:58;;;;;;;17.48;11.98;;;9.20;99.90;;;;;;5033485;28;20036;-54
2023/02/18 06:36:44;;;;;;;24.75;14.75;;;9.20;99.90;;;;;;5031693;28;20486;-56
2023/02/18 06:39:29;;;;;;;17.13;12.25;;;9.20;99.90;;;;;;5032841;28;20510;-51
2023/02/18 06:42:15;;;;;;;22.73;12.65;;;9.30;99.90;;;;;;5032420;28;20505;-53
2023/02/18 06:45:02;;;;;;;18.45;12.27;;;9.20;99.90;;;;;;5032326;28;20176;-54
2023/02/18 06:47:48;;;;;;;21.45;13.13;;;9.10;99.90;;;;;;5032225;28;20112;-54
2023/02/18 06:50:34;;;;;;;20.83;12.65;;;9.30;99.90;;;;;;5031885;28;20033;-52
2023/02/18 06:53:20;;;;;;;24.58;13.70;;;9.30;99.90;;;;;;5021319;28;20044;-51
2023/02/18 06:56:06;;;;;;;21.42;14.43;;;9.20;99.90;;;;;;5033487;28;20018;-54
2023/02/18 06:58:52;;;;;;;23.65;13.15;;;9.10;99.90;;;;;;5033122;28;20520;-54
2023/02/18 07:01:38;;;;;;;23.77;13.45;;;9.10;99.90;;;;;;5031298;28;20112;-54
2023/02/18 07:04:23;;;;;;;26.30;14.23;;;9.10;99.90;;;;;;5013654;28;20410;-52
2023/02/18 07:07:09;;;;;;;20.75;12.65;;;9.10;99.90;;;;;;5012448;28;20040;-52
2023/02/18 07:09:55;;;;;;;27.80;15.00;;;9.10;99.90;;;;;;5014562;28;20037;-52
2023/02/18 07:12:41;;;;;;;22.17;14.10;;;9.10;99.90;;;;;;5015158;28;20124;-54
2023/02/18 07:15:27;;;;;;;26.55;15.30;;;9.10;99.90;;;;;;5013031;28;20490;-51
2023/02/18 07:18:13;;;;;;;19.98;14.48;;;9.10;99.90;;;;;;5011953;28;20036;-52
2023/02/18 07:20:59;;;;;;;25.35;14.70;;;9.10;99.90;;;;;;5023558;28;20037;-54
2023/02/18 07:23:45;;;;;;;21.98;14.65;;;9.10;99.90;;;;;;5020939;28;20117;-51
2023/02/18 07:26:31;;;;;;;23.42;15.02;;;9.10;99.90;;;;;;5031472;28;20057;-52
2023/02/18 07:29:17;;;;;;;25.70;15.18;;;9.10;99.90;;;;;;5033479;28;20153;-53
2023/02/18 07:32:03;;;;;;;21.73;14.43;;;9.20;99.90;;;;;;5031368;28;20132;-51
2023/02/18 07:34:51;;;;;;;22.98;14.95;;;9.30;99.90;;;;;;5004901;28;20036;-51
2023/02/18 07:37:37;;;;;;;32.72;18.85;;;9.30;99.90;;;;;;5025715;28;20037;-51
2023/02/18 07:40:23;;;;;;;26.95;16.40;;;9.40;99.90;;;;;;5032847;28;20034;-55
2023/02/18 07:43:09;;;;;;;21.48;14.93;;;9.40;99.90;;;;;;5031646;28;20025;-54
2023/02/18 07:45:55;;;;;;;23.73;16.75;;;9.50;99.90;;;;;;5031520;28;20040;-54
2023/02/18 07:48:41;;;;;;;24.67;16.98;;;9.50;99.90;;;;;;5031507;28;20049;-53
2023/02/18 07:51:27;;;;;;;21.98;14.95;;;9.40;99.90;;;;;;5031784;28;20034;-53
2023/02/18 07:54:13;;;;;;;22.45;14.73;;;9.50;99.90;;;;;;5031413;28;20398;-51
2023/02/18 07:56:59;;;;;;;21.98;13.43;;;9.50;99.90;;;;;;5030901;28;20057;-53
2023/02/18 07:59:45;;;;;;;14.93;11.02;;;9.40;99.90;;;;;;5031715;28;20037;-53
2023/02/18 08:02:31;;;;;;;17.73;12.80;;;9.50;99.90;;;;;;5030884;28;20033;-50
2023/02/18 08:05:17;;;;;;;17.77;12.30;;;9.60;99.90;;;;;;5031072;28;20036;-50
2023/02/18 08:08:03;;;;;;;13.68;10.25;;;9.70;99.90;;;;;;5031719;28;20103;-53
2023/02/18 08:10:51;;;;;;;12.48;9.27;;;9.80;99.90;;;;;;5031007;28;20091;-50
2023/02/18 08:13:36;;;;;;;8.63;7.28;;;9.80;99.90;;;;;;5018046;28;20493;-49
2023/02/18 08:16:23;;;;;;;8.98;7.07;;;9.90;99.90;;;;;;5018582;28;20453;-47
2023/02/18 08:19:09;;;;;;;8.25;6.18;;;10.10;99.90;;;;;;5031976;28;20088;-53
2023/02/18 08:21:55;;;;;;;6.03;5.40;;;10.30;99.90;;;;;;5032886;28;20402;-51
2023/02/18 08:24:41;;;;;;;5.75;4.35;;;10.40;99.90;;;;;;5031649;28;20121;-47
2023/02/18 08:27:27;;;;;;;4.20;3.80;;;10.50;99.90;;;;;;5031282;28;20083;-53
2023/02/18 08:30:13;;;;;;;4.18;3.30;;;10.60;99.90;;;;;;5033176;28;20466;-47
2023/02/18 08:32:59;;;;;;;5.07;3.28;;;10.60;99.90;;;;;;5018219;28;20400;-49
2023/02/18 08:35:46;;;;;;;2.80;2.50;;;10.70;99.90;;;;;;5031633;28;20021;-46
2023/02/18 08:38:32;;;;;;;3.30;2.72;;;10.80;99.90;;;;;;5031421;28;20183;-46
2023/02/18 08:41:18;;;;;;;4.95;2.35;;;10.80;99.90;;;;;;5031238;28;20029;-50
2023/02/18 08:44:04;;;;;;;4.00;2.20;;;10.90;99.90;;;;;;5018535;28;20513;-47
2023/02/18 08:46:50;;;;;;;5.22;3.58;;;10.90;99.90;;;;;;5030270;28;20117;-49
2023/02/18 08:49:36;;;;;;;2.53;2.20;;;10.90;99.90;;;;;;5032782;28;20083;-49
2023/02/18 08:52:23;;;;;;;2.60;2.25;;;10.90;99.90;;;;;;5035597;28;20036;-49
2023/02/18 08:55:09;;;;;;;2.83;2.50;;;10.90;99.90;;;;;;5022362;28;20022;-48
2023/02/18 08:57:55;;;;;;;4.50;2.75;;;11.00;99.90;;;;;;5035436;28;20026;-47
2023/02/18 09:00:43;;;;;;;2.47;2.28;;;10.90;99.90;;;;;;5036457;28;20025;-46
2023/02/18 09:03:29;;;;;;;3.20;2.33;;;11.00;99.90;;;;;;5037186;28;20023;-47
2023/02/18 09:06:15;;;;;;;2.95;2.20;;;11.10;99.90;;;;;;5035357;28;20029;-51
2023/02/18 09:09:01;;;;;;;3.55;2.10;;;11.10;99.90;;;;;;5035030;28;20025;-48
2023/02/18 09:11:47;;;;;;;2.03;1.85;;;11.10;99.90;;;;;;5035108;28;20497;-50
2023/02/18 09:14:33;;;;;;;3.38;2.40;;;11.10;99.90;;;;;;5036269;28;20437;-47
2023/02/18 09:17:19;;;;;;;4.70;2.03;;;11.10;99.90;;;;;;5020616;28;20485;-46
2023/02/18 09:20:06;;;;;;;2.22;2.00;;;11.20;99.90;;;;;;5035621;28;20036;-49
2023/02/18 09:22:52;;;;;;;2.03;1.85;;;11.30;99.90;;;;;;5035205;28;20048;-51
2023/02/18 09:25:39;;;;;;;2.20;1.70;;;11.30;99.90;;;;;;5034778;28;20064;-55
2023/02/18 09:28:25;;;;;;;4.75;1.85;;;11.30;99.90;;;;;;5020163;28;20033;-47
2023/02/18 09:31:15;;;;;;;1.90;1.70;;;11.40;99.90;;;;;;5034615;28;20030;-46
2023/02/18 09:34:01;;;;;;;1.73;1.60;;;11.50;99.90;;;;;;5035797;28;20085;-49
2023/02/18 09:36:47;;;;;;;1.70;1.60;;;11.50;99.90;;;;;;5034915;28;20030;-47
2023/02/18 09:39:33;;;;;;;1.98;1.80;;;11.50;99.90;;;;;;5021464;28;20405;-54
2023/02/18 09:42:26;;;;;;;2.70;1.77;;;11.60;99.90;;;;;;5034401;28;20021;-46
2023/02/18 09:45:12;;;;;;;2.58;1.65;;;11.70;99.90;;;;;;5020790;28;20091;-51
2023/02/18 09:48:00;;;;;;;1.30;1.20;;;11.70;99.90;;;;;;5033777;28;20552;-51
2023/02/18 09:50:51;;;;;;;1.90;1.63;;;11.70;99.90;;;;;;5035340;28;20088;-52
2023/02/18 09:53:37;;;;;;;1.55;1.45;;;11.70;99.90;;;;;;5034075;28;20021;-47
2023/02/18 09:56:35;;;;;;;1.33;1.23;;;11.80;99.90;;;;;;5019767;28;20119;-50
2023/02/18 09:59:25;;;;;;;1.33;1.23;;;11.90;99.90;;;;;;5034682;28;20371;-51
2023/02/18 10:02:16;;;;;;;1.30;1.20;;;11.90;99.90;;;;;;5017443;28;20530;-52
2023/02/18 10:05:03;;;;;;;2.70;1.20;;;11.90;99.90;;;;;;5017210;28;20038;-46
2023/02/18 10:07:52;;;;;;;0.90;0.90;;;12.10;99.90;;;;;;5033494;28;20108;-48
2023/02/18 10:10:50;;;;;;;1.00;1.00;;;12.10;99.90;;;;;;5079484;22;20036;-45
2023/02/18 10:13:37;;;;;;;1.15;1.08;;;12.00;99.90;;;;;;4975987;28;20506;-51
2023/02/18 10:16:24;;;;;;;0.80;0.80;;;12.00;99.90;;;;;;4988206;28;20046;-51
2023/02/18 10:19:20;;;;;;;1.08;1.08;;;12.00;99.90;;;;;;4993987;28;20490;-52
2023/02/18 10:22:10;;;;;;;1.10;1.00;;;12.00;99.90;;;;;;4991186;28;20050;-53
2023/02/18 10:24:59;;;;;;;1.10;1.00;;;12.10;99.90;;;;;;4994224;28;20026;-51
2023/02/18 10:27:47;;;;;;;1.08;1.00;;;12.10;99.90;;;;;;4991549;28;20026;-51
2023/02/18 10:30:40;;;;;;;1.02;1.02;;;12.10;99.90;;;;;;4977023;28;20384;-50
2023/02/18 10:33:57;;;;;;;1.60;1.50;;;12.00;99.90;;;;;;4993267;28;20014;-51
2023/02/18 10:36:46;;;;;;;1.00;1.00;;;12.00;99.90;;;;;;4994169;28;20082;-51
2023/02/18 10:39:50;;;;;;;1.02;1.00;;;12.10;99.90;;;;;;4995354;28;20026;-52
2023/02/18 10:43:04;;;;;;;0.93;0.93;;;12.00;99.90;;;;;;4993807;28;20483;-51
2023/02/18 10:46:00;;;;;;;0.93;0.93;;;12.10;99.90;;;;;;4994099;28;20018;-47
2023/02/18 10:48:51;;;;;;;0.93;0.93;;;12.10;99.90;;;;;;4993149;28;20045;-53
2023/02/18 10:51:44;;;;;;;1.45;1.00;;;12.10;99.90;;;;;;4993277;28;20030;-50
2023/02/18 10:54:58;;;;;;;1.00;1.00;;;12.10;99.90;;;;;;4991060;28;20027;-52
2023/02/18 10:57:52;;;;;;;1.48;0.90;;;12.10;99.90;;;;;;4989535;28;20883;-49
2023/02/18 11:00:39;;;;;;;2.13;1.10;;;12.10;99.90;;;;;;4992104;28;20164;-49
2023/02/18 11:03:47;;;;;;;3.30;1.10;;;12.10;99.90;;;;;;4993586;28;20038;-56
2023/02/18 11:06:40;;;;;;;1.80;1.00;;;12.10;99.90;;;;;;4990196;28;20475;-52
2023/02/18 11:09:46;;;;;;;1.27;1.17;;;12.10;99.90;;;;;;4991797;28;20029;-52
2023/02/18 11:12:50;;;;;;;2.63;1.20;;;12.10;99.90;;;;;;4991150;28;20023;-54
2023/02/18 11:15:36;;;;;;;1.30;1.20;;;12.10;99.90;;;;;;4992125;28;20483;-49
2023/02/18 11:18:25;;;;;;;2.15;1.20;;;12.10;99.90;;;;;;4992726;28;20023;-53
2023/02/18 11:21:36;;;;;;;2.30;1.35;;;12.10;99.90;;;;;;4991756;28;20032;-52
2023/02/18 11:24:23;;;;;;;0.98;0.98;;;12.00;99.90;;;;;;4988445;28;20053;-51
2023/02/18 11:27:10;;;;;;;1.17;1.10;;;12.00;99.90;;;;;;4988918;28;20030;-48
2023/02/18 11:30:04;;;;;;;2.38;1.52;;;12.00;99.90;;;;;;4991154;28;20038;-53
2023/02/18 11:32:54;;;;;;;1.10;1.10;;;12.00;99.90;;;;;;4990871;28;20081;-55
2023/02/18 11:35:49;;;;;;;1.20;1.10;;;12.00;99.90;;;;;;4976808;28;20022;-53
2023/02/18 11:38:40;;;;;;;1.73;1.63;;;12.00;99.90;;;;;;4991085;28;20034;-51
2023/02/18 11:41:36;;;;;;;4.35;2.80;;;12.00;99.90;;;;;;4990697;28;20034;-52
2023/02/18 11:44:30;;;;;;;;;;;12.00;99.90;;;;;;4992156;28;20547;-53
2023/02/18 11:47:16;;;;;;;2.03;1.67;;;12.00;99.90;;;;;;4991452;28;20598;-52
2023/02/18 11:50:08;;;;;;;1.75;1.65;;;12.00;99.90;;;;;;4989310;28;20120;-52
2023/02/18 11:52:56;;;;;;;2.60;1.60;;;12.00;99.90;;;;;;4988986;28;20160;-50
2023/02/18 11:55:54;;;;;;;2.97;1.55;;;12.00;99.90;;;;;;4991099;28;20048;-50
2023/02/18 11:58:44;;;;;;;1.73;1.48;;;12.00;99.90;;;;;;4991957;28;20076;-55
2023/02/18 12:01:54;;;;;;;2.38;1.67;;;12.00;99.90;;;;;;4990431;28;20053;-51
2023/02/18 12:04:51;;;;;;;1.20;1.10;;;11.90;99.90;;;;;;4988934;28;20030;-54
2023/02/18 12:07:48;;;;;;;1.35;1.20;;;11.90;99.90;;;;;;4973505;28;20031;-53
2023/02/18 12:10:40;;;;;;;1.27;1.17;;;11.90;99.90;;;;;;4971066;28;20065;-55
2023/02/18 12:13:47;;;;;;;1.67;1.30;;;12.00;99.90;;;;;;4974333;28;20035;-50
2023/02/18 12:17:04;;;;;;;1.88;1.50;;;12.10;99.90;;;;;;4973849;28;20027;-50
2023/02/18 12:20:23;;;;;;;2.17;1.60;;;12.10;99.90;;;;;;4973396;28;20118;-50
2023/02/18 12:23:35;;;;;;;1.60;1.50;;;12.00;99.90;;;;;;4974512;28;20403;-50
2023/02/18 12:26:37;;;;;;;1.92;1.77;;;12.10;99.90;;;;;;4984603;28;20019;-51
2023/02/18 12:29:55;;;;;;;1.25;1.20;;;12.10;99.90;;;;;;4976177;28;20022;-54
2023/02/18 12:32:56;;;;;;;1.20;1.15;;;12.10;99.90;;;;;;4949823;28;20045;-51
2023/02/18 12:36:15;;;;;;;1.70;1.50;;;12.20;99.90;;;;;;4973653;28;20027;-53
2023/02/18 12:39:46;;;;;;;1.55;1.45;;;12.20;99.90;;;;;;4971932;28;20027;-51
2023/02/18 12:42:38;;;;;;;1.60;1.50;;;12.30;99.90;;;;;;4978127;28;20077;-47
2023/02/18 12:45:49;;;;;;;1.75;1.65;;;12.40;99.90;;;;;;4992530;28;20034;-53
2023/02/18 12:48:47;;;;;;;2.55;1.45;;;12.50;99.90;;;;;;4992529;28;20027;-49
2023/02/18 12:52:00;;;;;;;1.90;1.50;;;12.60;99.90;;;;;;4992363;28;20108;-48
2023/02/18 12:54:55;;;;;;;1.50;1.40;;;12.70;99.90;;;;;;4993006;28;20046;-52
2023/02/18 12:57:44;;;;;;;2.30;1.50;;;12.70;99.90;;;;;;4991610;28;20053;-49
2023/02/18 13:00:51;;;;;;;1.75;1.65;;;12.80;99.90;;;;;;4977191;28;20117;-51
2023/02/18 13:04:13;;;;;;;1.40;1.30;;;12.70;99.90;;;;;;4988761;28;20110;-53
2023/02/18 13:07:14;;;;;;;1.38;1.38;;;12.70;99.90;;;;;;4985443;28;20077;-52
2023/02/18 13:10:22;;;;;;;2.17;1.52;;;12.70;99.90;;;;;;4983454;28;20403;-52
2023/02/18 13:13:17;;;;;;;1.95;1.70;;;12.50;99.90;;;;;;4986118;28;20070;-53
2023/02/18 13:16:18;;;;;;;7.13;1.60;;;12.40;99.90;;;;;;4985661;28;20022;-52
2023/02/18 13:19:41;;;;;;;3.00;1.83;;;12.50;99.90;;;;;;4985814;28;20027;-51
2023/02/18 13:22:29;;;;;;;1.90;1.35;;;12.50;99.90;;;;;;4985183;28;20092;-51
2023/02/18 13:25:17;;;;;;;2.72;1.70;;;12.60;99.90;;;;;;4984656;28;20434;-54
2023/02/18 13:28:22;;;;;;;2.38;1.90;;;12.60;99.90;;;;;;4984982;28;20045;-52
2023/02/18 13:31:32;;;;;;;2.05;1.40;;;12.70;99.90;;;;;;4984821;28;21438;-49
2023/02/18 13:34:26;;;;;;;2.25;1.70;;;12.70;99.90;;;;;;4976679;28;20026;-50
2023/02/18 13:37:39;;;;;;;1.73;1.63;;;12.60;99.90;;;;;;4991476;28;20022;-53
2023/02/18 13:40:29;;;;;;;2.13;1.83;;;12.70;99.90;;;;;;4988642;28;20026;-48
2023/02/18 13:43:27;;;;;;;2.08;1.65;;;12.70;99.90;;;;;;4995109;28;20042;-51
2023/02/18 13:46:18;;;;;;;2.03;1.80;;;12.50;99.90;;;;;;4978411;28;20038;-51
2023/02/18 13:49:10;;;;;;;2.65;1.80;;;12.70;99.90;;;;;;4996150;28;20045;-50
2023/02/18 13:51:58;;;;;;;3.40;1.90;;;12.80;99.90;;;;;;4996582;28;20022;-47
2023/02/18 13:54:46;;;;;;;1.73;1.63;;;12.80;99.90;;;;;;4976783;28;20031;-50
2023/02/18 13:57:37;;;;;;;2.35;1.70;;;12.70;99.90;;;;;;4974431;28;20106;-50
2023/02/18 14:00:34;;;;;;;2.00;1.67;;;12.50;99.90;;;;;;4974611;28;20492;-52
2023/02/18 14:03:42;;;;;;;3.75;1.75;;;12.50;99.90;;;;;;4975756;28;20035;-50
2023/02/18 14:06:28;;;;;;;1.90;1.70;;;12.40;99.90;;;;;;4975067;28;20062;-52
2023/02/18 14:09:15;;;;;;;2.22;1.48;;;12.30;99.90;;;;;;4974838;28;20026;-48
2023/02/18 14:12:45;;;;;;;1.70;1.50;;;12.50;99.90;;;;;;4987860;28;20037;-53
2023/02/18 14:15:31;;;;;;;2.22;1.73;;;12.50;99.90;;;;;;4965905;28;20056;-47
2023/02/18 14:18:31;;;;;;;3.13;1.75;;;12.50;99.90;;;;;;4974380;28;20443;-50
2023/02/18 14:21:21;;;;;;;1.90;1.77;;;12.50;99.90;;;;;;4976967;28;20431;-52
2023/02/18 14:24:10;;;;;;;2.20;1.83;;;12.60;99.90;;;;;;4994956;28;20022;-50
2023/02/18 14:27:13;;;;;;;2.05;1.85;;;12.60;99.90;;;;;;4995050;28;20391;-48
2023/02/18 14:30:28;;;;;;;2.42;1.58;;;12.50;99.90;;;;;;4994528;28;20376;-48
2023/02/18 14:33:17;;;;;;;1.93;1.70;;;12.40;99.90;;;;;;4994078;28;20033;-47
2023/02/18 14:36:15;;;;;;;2.10;1.90;;;12.50;99.90;;;;;;4988101;28;20381;-51
2023/02/18 14:39:07;;;;;;;5.43;2.25;;;12.50;99.90;;;;;;4984454;28;20372;-52
2023/02/18 14:42:25;;;;;;;2.75;1.70;;;12.30;99.90;;;;;;4994607;28;20635;-49
2023/02/18 14:45:26;;;;;;;1.60;1.50;;;12.10;99.90;;;;;;4992413;28;20032;-49
2023/02/18 14:48:36;;;;;;;2.72;1.73;;;12.30;99.90;;;;;;4993465;28;20026;-48
2023/02/18 14:51:25;;;;;;;2.65;1.80;;;12.00;99.90;;;;;;4994252;28;20027;-53
2023/02/18 14:54:15;;;;;;;2.90;1.85;;;11.80;99.90;;;;;;4993142;28;20033;-49
2023/02/18 14:57:08;;;;;;;2.33;1.88;;;11.70;99.90;;;;;;4992501;28;20038;-49